createdAt,value
2017-12-01T00:01:50.925Z,73.93
2017-12-01T00:04:19.283Z,73.93
2017-12-01T00:06:48.131Z,73.70
2017-12-01T00:09:16.459Z,73.23
2017-12-01T00:11:44.773Z,73.30
2017-12-01T00:14:13.880Z,72.94
2017-12-01T00:16:43.021Z,72.87
2017-12-01T00:19:11.340Z,73.25
2017-12-01T00:21:39.706Z,72.77
2017-12-01T00:24:08.081Z,73.39
2017-12-01T00:26:36.365Z,72.62
2017-12-01T00:29:05.069Z,72.29
2017-12-01T00:31:34.144Z,72.12
2017-12-01T00:34:02.481Z,72.64
2017-12-01T00:36:30.823Z,72.68
2017-12-01T00:38:59.914Z,73.28
2017-12-01T00:41:28.271Z,73.41
2017-12-01T00:43:56.617Z,73.34
2017-12-01T00:46:24.952Z,72.65
2017-12-01T00:48:54.033Z,72.38
2017-12-01T00:51:22.584Z,72.45
2017-12-01T00:53:50.906Z,72.72
2017-12-01T00:56:20.003Z,73.81
2017-12-01T00:58:49.168Z,74.12
2017-12-01T01:01:17.531Z,73.99
2017-12-01T01:03:45.864Z,73.50
2017-12-01T01:06:15.001Z,73.60
2017-12-01T01:08:43.347Z,73.27
2017-12-01T01:11:11.725Z,72.97
2017-12-01T01:13:40.445Z,73.50
2017-12-01T01:16:08.780Z,73.75
2017-12-01T01:18:37.870Z,73.21
2017-12-01T01:21:06.996Z,74.08
2017-12-01T01:23:35.304Z,73.53
2017-12-01T01:26:03.627Z,73.36
2017-12-01T01:28:32.014Z,72.54
2017-12-01T01:31:00.387Z,72.50
2017-12-01T01:33:28.721Z,72.29
2017-12-01T01:35:57.420Z,72.19
2017-12-01T01:38:25.735Z,72.13
2017-12-01T01:40:54.067Z,72.20
2017-12-01T01:43:22.757Z,72.18
2017-12-01T01:45:51.140Z,71.95
2017-12-01T01:48:19.489Z,72.70
2017-12-01T01:50:47.816Z,72.97
2017-12-01T01:53:16.161Z,72.78
2017-12-01T01:55:44.566Z,72.65
2017-12-01T01:58:13.105Z,72.20
2017-12-01T02:00:41.452Z,72.13
2017-12-01T02:03:10.541Z,71.83
2017-12-01T02:05:38.891Z,72.56
2017-12-01T02:08:07.233Z,72.44
2017-12-01T02:10:35.595Z,72.40
2017-12-01T02:13:04.726Z,72.35
2017-12-01T02:15:33.028Z,71.79
2017-12-01T02:18:01.386Z,71.92
2017-12-01T02:20:29.964Z,71.55
2017-12-01T02:22:58.268Z,71.22
2017-12-01T02:25:26.618Z,70.45
2017-12-01T02:27:54.952Z,70.79
2017-12-01T02:30:23.300Z,71.21
2017-12-01T02:32:51.659Z,72.05
2017-12-01T02:35:20.025Z,72.22
2017-12-01T02:37:48.362Z,72.96
2017-12-01T02:40:16.814Z,73.04
2017-12-01T02:42:45.980Z,73.87
2017-12-01T02:45:14.760Z,74.79
2017-12-01T02:47:43.081Z,73.87
2017-12-01T02:50:11.422Z,73.54
2017-12-01T02:52:39.793Z,73.82
2017-12-01T02:55:08.192Z,73.58
2017-12-01T02:57:36.519Z,73.34
2017-12-01T03:00:04.834Z,73.66
2017-12-01T03:02:33.145Z,73.66
2017-12-01T03:05:01.624Z,73.31
2017-12-01T03:07:30.043Z,72.89
2017-12-01T03:09:58.333Z,73.10
2017-12-01T03:12:27.456Z,73.28
2017-12-01T03:14:56.552Z,73.38
2017-12-01T03:17:24.884Z,73.65
2017-12-01T03:19:53.217Z,74.04
2017-12-01T03:22:21.536Z,73.62
2017-12-01T03:24:49.856Z,73.34
2017-12-01T03:27:18.416Z,73.42
2017-12-01T03:29:46.925Z,73.22
2017-12-01T03:32:15.255Z,72.86
2017-12-01T03:34:43.624Z,72.48
2017-12-01T03:37:12.094Z,72.54
2017-12-01T03:39:40.292Z,73.62
2017-12-01T03:42:08.634Z,73.39
2017-12-01T03:44:36.979Z,73.11
2017-12-01T03:47:05.290Z,72.96
2017-12-01T03:49:33.819Z,72.74
2017-12-01T03:52:02.196Z,72.56
2017-12-01T03:54:30.552Z,72.37
2017-12-01T03:56:58.907Z,72.75
2017-12-01T03:59:27.219Z,72.59
2017-12-01T04:01:55.534Z,72.76
2017-12-01T04:04:23.886Z,73.03
2017-12-01T04:06:52.236Z,72.95
2017-12-01T04:09:20.563Z,73.09
2017-12-01T04:11:49.006Z,73.01
2017-12-01T04:14:17.351Z,73.15
2017-12-01T04:16:45.672Z,72.63
2017-12-01T04:19:14.036Z,72.17
2017-12-01T04:21:42.360Z,72.43
2017-12-01T04:24:10.676Z,73.11
2017-12-01T04:26:39.043Z,72.59
2017-12-01T04:29:07.345Z,72.20
2017-12-01T04:31:35.695Z,72.36
2017-12-01T04:34:04.527Z,72.69
2017-12-01T04:36:32.852Z,72.82
2017-12-01T04:39:01.171Z,72.82
2017-12-01T04:41:29.519Z,72.65
2017-12-01T04:43:57.877Z,72.48
2017-12-01T04:46:26.972Z,72.68
2017-12-01T04:48:56.085Z,72.40
2017-12-01T04:51:25.200Z,71.92
2017-12-01T04:53:53.553Z,72.52
2017-12-01T04:56:21.997Z,73.58
2017-12-01T04:58:50.344Z,74.35
2017-12-01T05:01:18.701Z,73.28
2017-12-01T05:03:47.067Z,72.97
2017-12-01T05:06:15.374Z,73.01
2017-12-01T05:08:43.845Z,73.10
2017-12-01T05:11:12.194Z,73.21
2017-12-01T05:13:40.544Z,73.06
2017-12-01T05:16:08.870Z,72.56
2017-12-01T05:18:37.268Z,71.83
2017-12-01T05:21:05.575Z,72.43
2017-12-01T05:23:33.882Z,71.99
2017-12-01T05:26:02.286Z,71.59
2017-12-01T05:28:30.642Z,72.49
2017-12-01T05:30:58.944Z,72.41
2017-12-01T05:33:27.317Z,72.73
2017-12-01T05:35:55.649Z,73.02
2017-12-01T05:38:23.995Z,73.05
2017-12-01T05:40:52.473Z,73.18
2017-12-01T05:43:20.777Z,74.01
2017-12-01T05:45:49.109Z,73.49
2017-12-01T05:48:17.475Z,73.16
2017-12-01T05:50:46.566Z,73.06
2017-12-01T05:53:15.673Z,74.00
2017-12-01T05:55:44.790Z,73.53
2017-12-01T05:58:13.110Z,73.89
2017-12-01T06:00:41.406Z,73.43
2017-12-01T06:03:09.821Z,73.85
2017-12-01T06:05:38.130Z,73.64
2017-12-01T06:08:06.484Z,73.27
2017-12-01T06:10:34.847Z,73.09
2017-12-01T06:13:03.949Z,73.91
2017-12-01T06:15:32.296Z,74.02
2017-12-01T06:18:00.681Z,73.40
2017-12-01T06:20:29.027Z,73.56
2017-12-01T06:22:57.324Z,73.06
2017-12-01T06:25:25.839Z,72.96
2017-12-01T06:27:54.154Z,72.92
2017-12-01T06:30:22.539Z,72.98
2017-12-01T06:32:50.872Z,72.82
2017-12-01T06:35:19.234Z,72.63
2017-12-01T06:37:47.580Z,72.64
2017-12-01T06:40:15.949Z,72.34
2017-12-01T06:42:44.329Z,72.06
2017-12-01T06:45:12.823Z,72.39
2017-12-01T06:47:41.330Z,72.45
2017-12-01T06:50:09.689Z,72.84
2017-12-01T06:52:38.050Z,71.72
2017-12-01T06:55:06.391Z,71.90
2017-12-01T06:57:34.703Z,72.31
2017-12-01T07:00:03.047Z,72.52
2017-12-01T07:02:31.379Z,72.38
2017-12-01T07:04:59.702Z,72.76
2017-12-01T07:07:28.023Z,72.74
2017-12-01T07:09:56.846Z,73.14
2017-12-01T07:12:25.192Z,72.96
2017-12-01T07:14:53.600Z,72.80
2017-12-01T07:17:21.985Z,72.52
2017-12-01T07:19:50.303Z,72.21
2017-12-01T07:22:18.677Z,72.54
2017-12-01T07:24:47.029Z,73.65
2017-12-01T07:27:15.341Z,73.18
2017-12-01T07:29:43.666Z,72.53
2017-12-01T07:32:12.276Z,72.67
2017-12-01T07:34:41.346Z,73.33
2017-12-01T07:37:09.725Z,73.96
2017-12-01T07:39:38.104Z,73.62
2017-12-01T07:42:06.434Z,73.53
2017-12-01T07:47:43.151Z,73.10
2017-12-01T07:50:11.580Z,73.13
2017-12-01T07:52:40.660Z,73.04
2017-12-01T07:55:09.008Z,72.56
2017-12-01T07:57:37.392Z,72.73
2017-12-01T08:00:06.491Z,72.45
2017-12-01T08:02:34.823Z,73.05
2017-12-01T08:05:03.166Z,72.99
2017-12-01T08:07:32.885Z,72.44
2017-12-01T08:10:01.230Z,72.48
2017-12-01T08:12:30.144Z,72.76
2017-12-01T08:14:58.500Z,71.96
2017-12-01T08:17:31.033Z,71.82
2017-12-01T08:20:00.127Z,72.61
2017-12-01T08:22:59.245Z,72.95
2017-12-01T08:25:32.111Z,73.61
2017-12-01T08:28:01.728Z,72.86
2017-12-01T08:30:30.072Z,72.33
2017-12-01T08:32:58.472Z,71.89
2017-12-01T08:35:26.783Z,72.30
2017-12-01T08:37:55.175Z,71.65
2017-12-01T08:40:23.587Z,71.27
2017-12-01T08:42:52.072Z,71.65
2017-12-01T08:45:20.489Z,71.41
2017-12-01T08:47:48.812Z,71.13
2017-12-01T08:50:17.632Z,70.75
2017-12-01T08:52:45.991Z,70.28
2017-12-01T08:55:14.339Z,70.22
2017-12-01T08:57:42.676Z,69.65
2017-12-01T09:00:11.778Z,69.85
2017-12-01T09:02:40.120Z,68.75
2017-12-01T09:05:08.472Z,68.99
2017-12-01T09:07:36.903Z,68.87
2017-12-01T09:10:06.097Z,69.00
2017-12-01T09:12:34.817Z,67.99
2017-12-01T09:15:03.136Z,67.69
2017-12-01T09:17:31.449Z,67.65
2017-12-01T09:20:00.548Z,66.68
2017-12-01T09:22:29.621Z,68.06
2017-12-01T09:24:57.925Z,66.14
2017-12-01T09:27:27.053Z,65.15
2017-12-01T09:29:55.415Z,63.03
2017-12-01T09:32:23.759Z,58.83
2017-12-01T09:34:52.306Z,51.53
2017-12-01T09:37:20.712Z,45.92
2017-12-01T09:39:49.006Z,44.87
2017-12-01T09:42:18.137Z,45.78
2017-12-01T09:44:46.510Z,48.28
2017-12-01T09:47:14.828Z,50.51
2017-12-01T09:49:43.221Z,53.87
2017-12-01T09:52:11.564Z,56.46
2017-12-01T09:54:39.894Z,58.99
2017-12-01T09:57:08.316Z,60.12
2017-12-01T09:59:36.632Z,59.97
2017-12-01T10:02:04.981Z,61.58
2017-12-01T10:04:33.301Z,63.00
2017-12-01T10:07:01.636Z,63.70
2017-12-01T10:09:29.945Z,64.54
2017-12-01T10:11:58.291Z,65.35
2017-12-01T10:14:26.592Z,65.26
2017-12-01T10:16:54.942Z,66.07
2017-12-01T10:19:23.461Z,66.42
2017-12-01T10:21:51.798Z,66.47
2017-12-01T10:24:20.132Z,66.41
2017-12-01T10:26:48.494Z,66.16
2017-12-01T10:29:16.834Z,64.78
2017-12-01T10:31:45.139Z,65.08
2017-12-01T10:34:13.505Z,64.33
2017-12-01T10:36:41.825Z,64.31
2017-12-01T10:39:10.335Z,64.38
2017-12-01T10:41:38.929Z,64.16
2017-12-01T10:44:07.248Z,64.67
2017-12-01T10:46:35.556Z,64.34
2017-12-01T10:49:04.129Z,64.44
2017-12-01T10:51:32.436Z,64.50
2017-12-01T10:54:00.756Z,63.96
2017-12-01T10:56:29.138Z,62.65
2017-12-01T10:58:57.509Z,62.45
2017-12-01T11:01:25.890Z,62.74
2017-12-01T11:03:54.532Z,61.88
2017-12-01T11:06:22.880Z,62.37
2017-12-01T11:08:51.205Z,63.92
2017-12-01T11:11:19.570Z,64.07
2017-12-01T11:13:48.678Z,64.60
2017-12-01T11:16:17.740Z,64.97
2017-12-01T11:18:46.115Z,64.62
2017-12-01T11:21:14.455Z,65.34
2017-12-01T11:23:42.810Z,65.35
2017-12-01T11:26:11.221Z,65.06
2017-12-01T11:28:39.557Z,65.37
2017-12-01T11:31:08.646Z,65.84
2017-12-01T11:33:37.810Z,65.84
2017-12-01T11:36:06.138Z,66.30
2017-12-01T11:38:34.453Z,66.74
2017-12-01T11:41:03.601Z,67.77
2017-12-01T11:43:32.688Z,67.47
2017-12-01T11:46:01.797Z,67.53
2017-12-01T11:48:30.992Z,67.82
2017-12-01T11:50:59.506Z,67.69
2017-12-01T11:53:27.930Z,67.59
2017-12-01T11:55:56.298Z,67.29
2017-12-01T11:58:25.418Z,67.39
2017-12-01T12:00:55.307Z,67.27
2017-12-01T12:03:24.561Z,67.51
2017-12-01T12:05:52.911Z,66.95
2017-12-01T12:08:22.020Z,66.73
2017-12-01T12:10:50.698Z,66.74
2017-12-01T12:13:19.831Z,67.03
2017-12-01T12:15:48.161Z,67.37
2017-12-01T12:18:16.519Z,67.38
2017-12-01T12:20:44.868Z,67.12
2017-12-01T12:23:13.479Z,67.44
2017-12-01T12:25:41.791Z,68.45
2017-12-01T12:28:10.910Z,68.52
2017-12-01T12:30:39.258Z,68.67
2017-12-01T12:33:08.177Z,68.66
2017-12-01T12:35:36.563Z,68.64
2017-12-01T12:38:04.879Z,68.96
2017-12-01T12:40:33.265Z,69.38
2017-12-01T12:43:01.614Z,69.83
2017-12-01T12:45:29.973Z,70.36
2017-12-01T12:47:58.321Z,69.69
2017-12-01T12:50:27.416Z,69.50
2017-12-01T12:52:55.779Z,69.28
2017-12-01T12:55:24.303Z,69.66
2017-12-01T12:57:53.397Z,69.17
2017-12-01T13:00:21.715Z,69.79
2017-12-01T13:02:50.100Z,69.57
2017-12-01T13:05:18.460Z,70.07
2017-12-01T13:07:46.803Z,69.82
2017-12-01T13:10:15.957Z,69.37
2017-12-01T13:12:44.281Z,70.11
2017-12-01T13:15:12.608Z,69.79
2017-12-01T13:17:41.784Z,69.95
2017-12-01T13:20:10.136Z,70.24
2017-12-01T13:22:39.434Z,70.03
2017-12-01T13:25:07.821Z,70.18
2017-12-01T13:27:36.323Z,70.43
2017-12-01T13:30:04.683Z,70.01
2017-12-01T13:32:33.783Z,69.66
2017-12-01T13:35:02.177Z,69.80
2017-12-01T13:37:30.522Z,70.14
2017-12-01T13:39:59.009Z,69.54
2017-12-01T13:42:27.353Z,70.40
2017-12-01T13:44:55.764Z,70.43
2017-12-01T13:47:24.162Z,69.17
2017-12-01T13:49:52.536Z,69.82
2017-12-01T13:52:20.896Z,69.32
2017-12-01T13:54:49.279Z,69.58
2017-12-01T13:57:17.657Z,69.84
2017-12-01T13:59:46.766Z,69.70
2017-12-01T14:02:16.009Z,70.16
2017-12-01T14:04:45.146Z,70.76
2017-12-01T14:07:14.284Z,70.06
2017-12-01T14:09:42.668Z,70.11
2017-12-01T14:12:11.030Z,70.34
2017-12-01T14:14:39.429Z,70.12
2017-12-01T14:17:07.871Z,69.89
2017-12-01T14:19:36.198Z,69.77
2017-12-01T14:22:04.531Z,70.28
2017-12-01T14:24:33.870Z,70.04
2017-12-01T14:27:02.254Z,70.77
2017-12-01T14:29:30.572Z,70.32
2017-12-01T14:31:58.950Z,70.42
2017-12-01T14:34:27.274Z,70.62
2017-12-01T14:36:55.599Z,70.85
2017-12-01T14:39:23.972Z,70.55
2017-12-01T14:41:52.311Z,70.54
2017-12-01T14:44:20.628Z,70.79
2017-12-01T14:46:49.213Z,71.00
2017-12-01T14:49:17.557Z,71.09
2017-12-01T14:51:45.899Z,71.52
2017-12-01T14:54:15.025Z,72.19
2017-12-01T14:56:43.413Z,71.98
2017-12-01T14:59:11.791Z,71.31
2017-12-01T15:01:40.172Z,71.62
2017-12-01T15:04:08.509Z,71.81
2017-12-01T15:06:37.687Z,71.75
2017-12-01T15:09:06.225Z,72.32
2017-12-01T15:11:34.608Z,72.24
2017-12-01T15:14:02.952Z,71.78
2017-12-01T15:16:31.356Z,72.04
2017-12-01T15:18:59.700Z,72.10
2017-12-01T15:21:28.008Z,72.12
2017-12-01T15:23:56.432Z,72.12
2017-12-01T15:26:24.729Z,71.78
2017-12-01T15:28:53.045Z,71.45
2017-12-01T15:31:21.747Z,71.72
2017-12-01T15:33:50.112Z,72.40
2017-12-01T15:36:18.428Z,71.92
2017-12-01T15:38:46.771Z,72.18
2017-12-01T15:41:15.117Z,72.10
2017-12-01T15:43:44.242Z,72.25
2017-12-01T15:46:13.405Z,72.22
2017-12-01T15:48:41.756Z,72.37
2017-12-01T15:51:10.089Z,72.08
2017-12-01T15:53:38.812Z,72.16
2017-12-01T15:56:07.156Z,71.80
2017-12-01T15:58:36.263Z,71.97
2017-12-01T16:01:04.793Z,71.85
2017-12-01T16:03:33.173Z,71.68
2017-12-01T16:06:01.496Z,71.51
2017-12-01T16:08:29.866Z,71.45
2017-12-01T16:10:58.967Z,72.15
2017-12-01T16:13:28.068Z,72.41
2017-12-01T16:15:56.813Z,72.29
2017-12-01T16:18:25.167Z,72.28
2017-12-01T16:20:53.512Z,72.25
2017-12-01T16:23:22.628Z,72.47
2017-12-01T16:25:50.943Z,72.05
2017-12-01T16:28:19.349Z,72.31
2017-12-01T16:30:48.454Z,72.56
2017-12-01T16:33:17.590Z,72.49
2017-12-01T16:35:45.898Z,72.06
2017-12-01T16:38:14.632Z,71.67
2017-12-01T16:40:42.984Z,72.11
2017-12-01T16:43:12.087Z,72.03
2017-12-01T16:45:41.232Z,71.75
2017-12-01T16:48:09.583Z,70.72
2017-12-01T16:50:37.947Z,70.49
2017-12-01T16:53:07.056Z,70.52
2017-12-01T16:55:35.349Z,69.84
2017-12-01T16:58:03.655Z,70.15
2017-12-01T17:00:32.076Z,69.82
2017-12-01T17:03:01.209Z,69.86
2017-12-01T17:05:29.546Z,69.39
2017-12-01T17:07:58.691Z,69.56
2017-12-01T17:10:27.103Z,69.64
2017-12-01T17:12:55.444Z,69.66
2017-12-01T17:15:23.843Z,69.55
2017-12-01T17:17:52.197Z,69.51
2017-12-01T17:20:20.613Z,69.71
2017-12-01T17:22:49.355Z,70.00
2017-12-01T17:25:17.707Z,70.16
2017-12-01T17:27:46.796Z,70.54
2017-12-01T17:30:15.137Z,70.63
2017-12-01T17:32:43.503Z,70.21
2017-12-01T17:35:12.661Z,69.97
2017-12-01T17:37:41.867Z,70.03
2017-12-01T17:40:10.971Z,70.06
2017-12-01T17:42:39.342Z,69.98
2017-12-01T17:45:08.521Z,69.47
2017-12-01T17:47:36.837Z,69.33
2017-12-01T17:50:05.238Z,69.56
2017-12-01T17:52:33.662Z,69.75
2017-12-01T17:55:02.778Z,69.44
2017-12-01T17:57:31.876Z,69.08
2017-12-01T18:00:00.224Z,68.90
2017-12-01T18:02:28.602Z,69.20
2017-12-01T18:04:57.734Z,69.63
2017-12-01T18:07:26.534Z,69.60
2017-12-01T18:09:54.868Z,68.82
2017-12-01T18:12:23.211Z,69.64
2017-12-01T18:14:51.625Z,69.73
2017-12-01T18:17:19.950Z,69.43
2017-12-01T18:19:48.296Z,69.33
2017-12-01T18:22:17.414Z,69.25
2017-12-01T18:24:45.738Z,69.86
2017-12-01T18:27:14.070Z,69.92
2017-12-01T18:29:42.578Z,69.85
2017-12-01T18:32:10.931Z,70.02
2017-12-01T18:34:39.269Z,70.25
2017-12-01T18:37:07.889Z,70.40
2017-12-01T18:39:36.297Z,70.35
2017-12-01T18:42:04.697Z,70.17
2017-12-01T18:44:33.112Z,70.43
2017-12-01T18:47:01.436Z,70.76
2017-12-01T18:49:29.914Z,70.67
2017-12-01T18:51:58.384Z,70.93
2017-12-01T18:54:26.795Z,70.68
2017-12-01T18:56:55.119Z,70.47
2017-12-01T18:59:24.244Z,71.23
2017-12-01T19:01:52.593Z,71.01
2017-12-01T19:04:21.734Z,70.75
2017-12-01T19:06:50.099Z,70.71
2017-12-01T19:09:18.456Z,70.95
2017-12-01T19:11:47.570Z,71.41
2017-12-01T19:14:16.333Z,71.41
2017-12-01T19:16:45.428Z,71.85
2017-12-01T19:19:13.868Z,72.66
2017-12-01T19:21:42.254Z,73.66
2017-12-01T19:24:10.582Z,74.73
2017-12-01T19:26:39.683Z,75.04
2017-12-01T19:29:08.781Z,74.67
2017-12-01T19:31:37.111Z,74.19
2017-12-01T19:34:05.476Z,74.00
2017-12-01T19:36:33.913Z,73.89
2017-12-01T19:39:02.231Z,74.35
2017-12-01T19:41:30.607Z,74.40
2017-12-01T19:43:59.047Z,74.24
2017-12-01T19:48:54.655Z,75.41
2017-12-01T19:51:23.003Z,74.96
2017-12-01T19:53:51.341Z,75.42
2017-12-01T19:56:19.748Z,75.17
2017-12-01T19:58:48.422Z,74.72
2017-12-01T20:01:16.789Z,75.06
2017-12-01T20:03:45.155Z,74.77
2017-12-01T20:06:14.293Z,74.79
2017-12-01T20:08:42.604Z,74.57
2017-12-01T20:11:10.923Z,74.88
2017-12-01T20:13:39.293Z,74.60
2017-12-01T20:16:23.269Z,74.72
2017-12-01T20:18:51.700Z,74.81
2017-12-01T20:21:20.787Z,74.50
2017-12-01T20:23:49.120Z,74.35
2017-12-01T20:26:17.509Z,74.11
2017-12-01T20:28:45.854Z,74.20
2017-12-01T20:31:14.183Z,74.01
2017-12-01T20:33:42.558Z,73.40
2017-12-01T20:36:10.908Z,73.51
2017-12-01T20:38:39.238Z,73.26
2017-12-01T20:41:07.769Z,73.93
2017-12-01T20:43:36.075Z,74.12
2017-12-01T20:46:04.369Z,74.69
2017-12-01T20:48:32.731Z,74.22
2017-12-01T20:51:01.148Z,74.23
2017-12-01T20:53:30.217Z,74.18
2017-12-01T20:55:58.554Z,74.47
2017-12-01T20:58:26.881Z,74.51
2017-12-01T21:00:55.239Z,74.89
2017-12-01T21:03:23.823Z,75.26
2017-12-01T21:05:52.508Z,75.55
2017-12-01T21:08:20.876Z,75.77
2017-12-01T21:10:49.232Z,76.00
2017-12-01T21:13:17.552Z,75.29
2017-12-01T21:15:45.907Z,74.92
2017-12-01T21:18:14.314Z,74.71
2017-12-01T21:20:42.606Z,74.32
2017-12-01T21:23:10.925Z,74.39
2017-12-01T21:25:39.344Z,74.78
2017-12-01T21:28:07.648Z,74.59
2017-12-01T21:30:35.991Z,75.18
2017-12-01T21:33:04.401Z,74.79
2017-12-01T21:35:32.705Z,75.15
2017-12-01T21:38:01.058Z,75.47
2017-12-01T21:40:29.408Z,76.14
2017-12-01T21:42:57.748Z,76.42
2017-12-01T21:45:26.855Z,76.37
2017-12-01T21:47:55.287Z,76.86
2017-12-01T21:50:23.616Z,76.78
2017-12-01T21:52:51.972Z,77.16
2017-12-01T21:55:21.163Z,77.89
2017-12-01T21:57:49.476Z,77.40
2017-12-01T22:00:17.837Z,76.39
2017-12-01T22:02:46.214Z,76.49
2017-12-01T22:05:14.545Z,76.71
2017-12-01T22:07:42.899Z,76.81
2017-12-01T22:10:11.523Z,77.19
2017-12-01T22:12:39.817Z,76.11
2017-12-01T22:15:08.941Z,76.13
2017-12-01T22:17:37.340Z,75.59
2017-12-01T22:20:05.650Z,75.04
2017-12-01T22:22:33.962Z,75.98
2017-12-01T22:25:03.113Z,76.34
2017-12-01T22:27:31.458Z,76.47
2017-12-01T22:29:59.810Z,75.77
2017-12-01T22:32:29.025Z,75.12
2017-12-01T22:34:57.345Z,74.94
2017-12-01T22:37:25.701Z,73.97
2017-12-01T22:39:54.024Z,74.49
2017-12-01T22:42:22.342Z,75.00
2017-12-01T22:44:50.641Z,76.08
2017-12-01T22:47:18.992Z,75.88
2017-12-01T22:49:47.358Z,75.74
2017-12-01T22:54:49.198Z,75.10
2017-12-01T22:57:17.487Z,75.44
2017-12-01T22:59:45.834Z,74.38
2017-12-01T23:02:14.209Z,75.04
2017-12-01T23:04:42.517Z,74.49
2017-12-01T23:07:10.871Z,74.79
2017-12-01T23:09:39.220Z,74.64
2017-12-01T23:12:07.558Z,74.59
2017-12-01T23:14:35.868Z,74.96
2017-12-01T23:17:04.451Z,75.22
2017-12-01T23:19:33.562Z,75.00
2017-12-01T23:22:01.896Z,75.85
2017-12-01T23:24:30.240Z,75.87
2017-12-01T23:26:58.588Z,75.23
2017-12-01T23:29:27.681Z,75.81
2017-12-01T23:31:56.801Z,75.59
2017-12-01T23:36:58.772Z,75.85
2017-12-01T23:39:27.194Z,74.85
2017-12-01T23:41:55.504Z,75.38
2017-12-01T23:44:23.864Z,76.17
2017-12-01T23:46:52.162Z,75.62
2017-12-01T23:49:21.263Z,75.63
2017-12-01T23:51:50.417Z,75.93
2017-12-01T23:54:19.591Z,75.75
2017-12-01T23:56:47.969Z,76.01
2017-12-01T23:59:16.360Z,76.02
